sensor_id;sensor_type;location;lat;lon;timestamp;temperature;humidity
44671;DHT22;48397;53.016;-2.260;2023-04-22T00:01:25;6.20;99.90
44671;DHT22;48397;53.016;-2.260;2023-04-22T00:03:53;6.10;99.90
44671;DHT22;48397;53.016;-2.260;2023-04-22T00:06:21;6.10;99.90
44671;DHT22;48397;53.016;-2.260;2023-04-22T00:08:48;6.00;99.90
44671;DHT22;48397;53.016;-2.260;2023-04-22T00:11:16;6.00;99.90
44671;DHT22;48397;53.016;-2.260;2023-04-22T00:13:44;6.00;99.90
44671;DHT22;48397;53.016;-2.260;2023-04-22T00:16:12;5.90;99.90
44671;DHT22;48397;53.016;-2.260;2023-04-22T00:18:40;5.90;99.90
44671;DHT22;48397;53.016;-2.260;2023-04-22T00:23:36;5.80;99.90
44671;DHT22;48397;53.016;-2.260;2023-04-22T00:26:03;5.80;99.90
44671;DHT22;48397;53.016;-2.260;2023-04-22T00:28:32;5.70;99.90
44671;DHT22;48397;53.016;-2.260;2023-04-22T00:31:00;5.60;99.90
44671;DHT22;48397;53.016;-2.260;2023-04-22T00:33:30;5.50;99.90
44671;DHT22;48397;53.016;-2.260;2023-04-22T00:40:53;5.30;99.90
44671;DHT22;48397;53.016;-2.260;2023-04-22T00:43:21;5.10;99.90
44671;DHT22;48397;53.016;-2.260;2023-04-22T00:45:49;5.00;99.90
44671;DHT22;48397;53.016;-2.260;2023-04-22T00:48:17;4.90;99.90
44671;DHT22;48397;53.016;-2.260;2023-04-22T00:50:45;4.90;99.90
44671;DHT22;48397;53.016;-2.260;2023-04-22T00:53:13;4.90;99.90
44671;DHT22;48397;53.016;-2.260;2023-04-22T00:55:41;4.80;99.90
44671;DHT22;48397;53.016;-2.260;2023-04-22T00:58:09;4.80;99.90
44671;DHT22;48397;53.016;-2.260;2023-04-22T01:00:37;4.80;99.90
44671;DHT22;48397;53.016;-2.260;2023-04-22T01:03:05;7.70;99.90
44671;DHT22;48397;53.016;-2.260;2023-04-22T01:05:33;4.80;99.90
44671;DHT22;48397;53.016;-2.260;2023-04-22T01:08:02;4.80;99.90
44671;DHT22;48397;53.016;-2.260;2023-04-22T01:10:30;4.70;99.90
44671;DHT22;48397;53.016;-2.260;2023-04-22T01:12:57;4.60;99.90
44671;DHT22;48397;53.016;-2.260;2023-04-22T01:15:25;4.60;99.90
44671;DHT22;48397;53.016;-2.260;2023-04-22T01:17:55;4.60;99.90
44671;DHT22;48397;53.016;-2.260;2023-04-22T01:20:24;4.60;99.90
44671;DHT22;48397;53.016;-2.260;2023-04-22T01:22:57;4.60;99.90
44671;DHT22;48397;53.016;-2.260;2023-04-22T01:25:28;4.60;99.90
44671;DHT22;48397;53.016;-2.260;2023-04-22T01:27:56;4.60;99.90
44671;DHT22;48397;53.016;-2.260;2023-04-22T01:30:24;4.50;99.90
44671;DHT22;48397;53.016;-2.260;2023-04-22T01:35:20;4.50;99.90
44671;DHT22;48397;53.016;-2.260;2023-04-22T01:40:18;4.50;99.90
44671;DHT22;48397;53.016;-2.260;2023-04-22T01:42:49;4.50;99.90
44671;DHT22;48397;53.016;-2.260;2023-04-22T01:45:17;4.50;99.90
44671;DHT22;48397;53.016;-2.260;2023-04-22T01:47:45;4.60;99.90
44671;DHT22;48397;53.016;-2.260;2023-04-22T01:50:12;4.60;99.90
44671;DHT22;48397;53.016;-2.260;2023-04-22T01:52:40;4.70;99.90
44671;DHT22;48397;53.016;-2.260;2023-04-22T01:55:08;4.60;99.90
44671;DHT22;48397;53.016;-2.260;2023-04-22T01:57:36;4.80;99.90
44671;DHT22;48397;53.016;-2.260;2023-04-22T02:00:06;4.80;99.90
44671;DHT22;48397;53.016;-2.260;2023-04-22T02:02:43;4.80;99.90
44671;DHT22;48397;53.016;-2.260;2023-04-22T02:05:12;4.70;99.90
44671;DHT22;48397;53.016;-2.260;2023-04-22T02:07:41;4.70;99.90
44671;DHT22;48397;53.016;-2.260;2023-04-22T02:10:10;4.70;99.90
44671;DHT22;48397;53.016;-2.260;2023-04-22T02:12:38;4.70;99.90
44671;DHT22;48397;53.016;-2.260;2023-04-22T02:15:06;4.70;99.90
44671;DHT22;48397;53.016;-2.260;2023-04-22T02:17:34;4.70;99.90
44671;DHT22;48397;53.016;-2.260;2023-04-22T02:20:05;4.70;99.90
44671;DHT22;48397;53.016;-2.260;2023-04-22T02:22:33;4.70;99.90
44671;DHT22;48397;53.016;-2.260;2023-04-22T02:25:01;4.60;99.90
44671;DHT22;48397;53.016;-2.260;2023-04-22T02:29:57;4.60;99.90
44671;DHT22;48397;53.016;-2.260;2023-04-22T02:32:26;4.50;99.90
44671;DHT22;48397;53.016;-2.260;2023-04-22T02:37:28;4.40;99.90
44671;DHT22;48397;53.016;-2.260;2023-04-22T02:39:56;4.30;99.90
44671;DHT22;48397;53.016;-2.260;2023-04-22T02:42:24;4.20;99.90
44671;DHT22;48397;53.016;-2.260;2023-04-22T02:52:18;4.20;99.90
44671;DHT22;48397;53.016;-2.260;2023-04-22T02:54:46;4.20;99.90
44671;DHT22;48397;53.016;-2.260;2023-04-22T02:57:17;4.30;99.90
44671;DHT22;48397;53.016;-2.260;2023-04-22T03:02:22;4.40;99.90
44671;DHT22;48397;53.016;-2.260;2023-04-22T03:08:23;4.10;99.90
44671;DHT22;48397;53.016;-2.260;2023-04-22T03:11:06;4.00;99.90
44671;DHT22;48397;53.016;-2.260;2023-04-22T03:16:04;4.00;99.90
44671;DHT22;48397;53.016;-2.260;2023-04-22T03:18:33;4.00;99.90
44671;DHT22;48397;53.016;-2.260;2023-04-22T03:21:03;4.10;99.90
44671;DHT22;48397;53.016;-2.260;2023-04-22T03:26:05;4.20;99.90
44671;DHT22;48397;53.016;-2.260;2023-04-22T03:28:35;4.20;99.90
44671;DHT22;48397;53.016;-2.260;2023-04-22T03:31:07;4.20;99.90
44671;DHT22;48397;53.016;-2.260;2023-04-22T03:33:37;4.30;99.90
44671;DHT22;48397;53.016;-2.260;2023-04-22T03:36:16;4.40;99.90
44671;DHT22;48397;53.016;-2.260;2023-04-22T03:39:12;4.50;99.90
44671;DHT22;48397;53.016;-2.260;2023-04-22T03:46:55;4.80;99.90
44671;DHT22;48397;53.016;-2.260;2023-04-22T03:49:28;4.90;99.90
44671;DHT22;48397;53.016;-2.260;2023-04-22T03:52:04;4.90;99.90
44671;DHT22;48397;53.016;-2.260;2023-04-22T03:54:37;5.00;99.90
44671;DHT22;48397;53.016;-2.260;2023-04-22T03:59:50;5.00;99.90
44671;DHT22;48397;53.016;-2.260;2023-04-22T04:02:28;5.10;99.90
44671;DHT22;48397;53.016;-2.260;2023-04-22T04:05:41;5.20;99.90
44671;DHT22;48397;53.016;-2.260;2023-04-22T04:08:19;5.20;99.90
44671;DHT22;48397;53.016;-2.260;2023-04-22T04:10:49;5.30;99.90
44671;DHT22;48397;53.016;-2.260;2023-04-22T04:16:16;5.50;99.90
44671;DHT22;48397;53.016;-2.260;2023-04-22T04:21:22;5.50;99.90
44671;DHT22;48397;53.016;-2.260;2023-04-22T04:23:54;5.70;99.90
44671;DHT22;48397;53.016;-2.260;2023-04-22T04:26:30;5.70;99.90
44671;DHT22;48397;53.016;-2.260;2023-04-22T04:29:26;5.70;99.90
44671;DHT22;48397;53.016;-2.260;2023-04-22T04:32:04;5.80;99.90
44671;DHT22;48397;53.016;-2.260;2023-04-22T04:34:33;5.70;99.90
44671;DHT22;48397;53.016;-2.260;2023-04-22T04:37:02;5.80;99.90
44671;DHT22;48397;53.016;-2.260;2023-04-22T04:39:40;5.80;99.90
44671;DHT22;48397;53.016;-2.260;2023-04-22T04:44:46;5.90;99.90
44671;DHT22;48397;53.016;-2.260;2023-04-22T04:47:15;5.90;99.90
44671;DHT22;48397;53.016;-2.260;2023-04-22T04:49:43;6.00;99.90
44671;DHT22;48397;53.016;-2.260;2023-04-22T04:52:13;6.00;99.90
44671;DHT22;48397;53.016;-2.260;2023-04-22T04:54:41;6.10;99.90
44671;DHT22;48397;53.016;-2.260;2023-04-22T04:57:09;6.00;99.90
44671;DHT22;48397;53.016;-2.260;2023-04-22T04:59:39;6.10;99.90
44671;DHT22;48397;53.016;-2.260;2023-04-22T05:02:08;6.10;99.90
44671;DHT22;48397;53.016;-2.260;2023-04-22T05:04:36;6.10;99.90
44671;DHT22;48397;53.016;-2.260;2023-04-22T05:07:05;6.10;99.90
44671;DHT22;48397;53.016;-2.260;2023-04-22T05:09:36;6.00;99.90
44671;DHT22;48397;53.016;-2.260;2023-04-22T05:12:05;6.00;99.90
44671;DHT22;48397;53.016;-2.260;2023-04-22T05:14:34;6.00;99.90
44671;DHT22;48397;53.016;-2.260;2023-04-22T05:17:03;6.00;99.90
44671;DHT22;48397;53.016;-2.260;2023-04-22T05:19:31;6.00;99.90
44671;DHT22;48397;53.016;-2.260;2023-04-22T05:22:01;6.10;99.90
44671;DHT22;48397;53.016;-2.260;2023-04-22T05:26:59;6.10;99.90
44671;DHT22;48397;53.016;-2.260;2023-04-22T05:32:00;6.20;99.90
44671;DHT22;48397;53.016;-2.260;2023-04-22T05:34:34;6.30;99.90
44671;DHT22;48397;53.016;-2.260;2023-04-22T05:37:06;6.30;99.90
44671;DHT22;48397;53.016;-2.260;2023-04-22T05:39:37;6.50;99.90
44671;DHT22;48397;53.016;-2.260;2023-04-22T05:42:09;6.60;99.90
44671;DHT22;48397;53.016;-2.260;2023-04-22T05:44:38;6.70;99.90
44671;DHT22;48397;53.016;-2.260;2023-04-22T05:47:06;6.70;99.90
44671;DHT22;48397;53.016;-2.260;2023-04-22T05:52:04;6.90;99.90
44671;DHT22;48397;53.016;-2.260;2023-04-22T05:54:42;6.90;99.90
44671;DHT22;48397;53.016;-2.260;2023-04-22T05:57:11;7.00;99.90
44671;DHT22;48397;53.016;-2.260;2023-04-22T05:59:41;7.10;99.90
44671;DHT22;48397;53.016;-2.260;2023-04-22T06:02:10;7.40;99.90
44671;DHT22;48397;53.016;-2.260;2023-04-22T06:04:40;7.10;99.90
44671;DHT22;48397;53.016;-2.260;2023-04-22T06:07:09;7.20;99.90
44671;DHT22;48397;53.016;-2.260;2023-04-22T06:09:38;7.20;99.90
44671;DHT22;48397;53.016;-2.260;2023-04-22T06:12:09;7.30;99.90
44671;DHT22;48397;53.016;-2.260;2023-04-22T06:14:37;7.30;99.90
44671;DHT22;48397;53.016;-2.260;2023-04-22T06:17:04;7.40;99.90
44671;DHT22;48397;53.016;-2.260;2023-04-22T06:19:32;7.40;99.90
44671;DHT22;48397;53.016;-2.260;2023-04-22T06:22:00;7.50;99.90
44671;DHT22;48397;53.016;-2.260;2023-04-22T06:24:28;7.50;99.90
44671;DHT22;48397;53.016;-2.260;2023-04-22T06:26:56;7.60;99.90
44671;DHT22;48397;53.016;-2.260;2023-04-22T06:29:28;7.60;99.90
44671;DHT22;48397;53.016;-2.260;2023-04-22T06:31:56;7.60;99.90
44671;DHT22;48397;53.016;-2.260;2023-04-22T06:34:24;7.60;99.90
44671;DHT22;48397;53.016;-2.260;2023-04-22T06:36:52;7.60;99.90
44671;DHT22;48397;53.016;-2.260;2023-04-22T06:41:49;7.60;99.90
44671;DHT22;48397;53.016;-2.260;2023-04-22T06:44:46;7.70;99.90
44671;DHT22;48397;53.016;-2.260;2023-04-22T06:47:21;7.70;99.90
44671;DHT22;48397;53.016;-2.260;2023-04-22T06:50:03;7.80;99.90
44671;DHT22;48397;53.016;-2.260;2023-04-22T06:52:53;3.60;99.90
44671;DHT22;48397;53.016;-2.260;2023-04-22T06:55:23;7.80;99.90
44671;DHT22;48397;53.016;-2.260;2023-04-22T06:57:50;7.80;99.90
44671;DHT22;48397;53.016;-2.260;2023-04-22T07:00:18;7.80;99.90
44671;DHT22;48397;53.016;-2.260;2023-04-22T07:02:46;7.90;99.90
44671;DHT22;48397;53.016;-2.260;2023-04-22T07:05:14;8.00;99.90
44671;DHT22;48397;53.016;-2.260;2023-04-22T07:07:43;8.00;99.90
44671;DHT22;48397;53.016;-2.260;2023-04-22T07:13:04;6.60;99.90
44671;DHT22;48397;53.016;-2.260;2023-04-22T07:15:32;8.20;99.90
44671;DHT22;48397;53.016;-2.260;2023-04-22T07:18:00;8.30;99.90
44671;DHT22;48397;53.016;-2.260;2023-04-22T07:20:27;8.40;99.90
44671;DHT22;48397;53.016;-2.260;2023-04-22T07:22:55;8.40;99.90
44671;DHT22;48397;53.016;-2.260;2023-04-22T07:25:22;8.50;99.90
44671;DHT22;48397;53.016;-2.260;2023-04-22T07:27:50;8.60;99.90
44671;DHT22;48397;53.016;-2.260;2023-04-22T07:30:18;8.60;99.90
44671;DHT22;48397;53.016;-2.260;2023-04-22T07:32:45;8.70;99.90
44671;DHT22;48397;53.016;-2.260;2023-04-22T07:35:15;8.70;99.90
44671;DHT22;48397;53.016;-2.260;2023-04-22T07:37:42;8.80;99.90
44671;DHT22;48397;53.016;-2.260;2023-04-22T07:42:06;8.90;99.90
44671;DHT22;48397;53.016;-2.260;2023-04-22T07:44:34;8.90;99.90
44671;DHT22;48397;53.016;-2.260;2023-04-22T07:49:34;9.00;99.90
44671;DHT22;48397;53.016;-2.260;2023-04-22T07:52:02;9.00;99.90
44671;DHT22;48397;53.016;-2.260;2023-04-22T07:54:30;9.00;99.90
44671;DHT22;48397;53.016;-2.260;2023-04-22T07:56:58;9.00;99.90
44671;DHT22;48397;53.016;-2.260;2023-04-22T07:59:27;9.00;99.90
44671;DHT22;48397;53.016;-2.260;2023-04-22T08:01:54;9.10;99.90
44671;DHT22;48397;53.016;-2.260;2023-04-22T08:04:22;9.20;99.90
44671;DHT22;48397;53.016;-2.260;2023-04-22T08:06:50;9.20;99.90
44671;DHT22;48397;53.016;-2.260;2023-04-22T08:09:18;9.30;99.90
44671;DHT22;48397;53.016;-2.260;2023-04-22T08:14:14;9.50;99.90
44671;DHT22;48397;53.016;-2.260;2023-04-22T08:19:09;6.50;99.90
44671;DHT22;48397;53.016;-2.260;2023-04-22T08:24:06;9.50;99.90
44671;DHT22;48397;53.016;-2.260;2023-04-22T08:26:35;9.60;99.90
44671;DHT22;48397;53.016;-2.260;2023-04-22T08:31:33;9.60;99.90
44671;DHT22;48397;53.016;-2.260;2023-04-22T08:36:30;9.80;99.90
44671;DHT22;48397;53.016;-2.260;2023-04-22T08:38:58;10.00;99.90
44671;DHT22;48397;53.016;-2.260;2023-04-22T08:41:27;10.20;99.90
44671;DHT22;48397;53.016;-2.260;2023-04-22T08:43:55;10.40;99.90
44671;DHT22;48397;53.016;-2.260;2023-04-22T08:46:24;10.60;99.90
44671;DHT22;48397;53.016;-2.260;2023-04-22T08:48:53;10.70;99.90
44671;DHT22;48397;53.016;-2.260;2023-04-22T08:51:21;10.70;99.90
44671;DHT22;48397;53.016;-2.260;2023-04-22T08:53:49;10.80;99.90
44671;DHT22;48397;53.016;-2.260;2023-04-22T08:56:17;10.90;99.90
44671;DHT22;48397;53.016;-2.260;2023-04-22T08:58:44;11.00;99.90
44671;DHT22;48397;53.016;-2.260;2023-04-22T09:01:13;11.00;99.90
44671;DHT22;48397;53.016;-2.260;2023-04-22T09:03:41;11.10;99.90
44671;DHT22;48397;53.016;-2.260;2023-04-22T09:06:10;11.10;99.90
44671;DHT22;48397;53.016;-2.260;2023-04-22T09:08:38;11.10;99.90
44671;DHT22;48397;53.016;-2.260;2023-04-22T09:13:34;10.90;99.90
44671;DHT22;48397;53.016;-2.260;2023-04-22T09:16:02;10.80;99.90
44671;DHT22;48397;53.016;-2.260;2023-04-22T09:18:30;10.70;99.90
44671;DHT22;48397;53.016;-2.260;2023-04-22T09:21:04;10.60;99.90
44671;DHT22;48397;53.016;-2.260;2023-04-22T09:23:32;10.60;99.90
44671;DHT22;48397;53.016;-2.260;2023-04-22T09:26:00;10.50;99.90
44671;DHT22;48397;53.016;-2.260;2023-04-22T09:28:28;10.50;99.90
44671;DHT22;48397;53.016;-2.260;2023-04-22T09:30:59;10.40;99.90
44671;DHT22;48397;53.016;-2.260;2023-04-22T09:33:30;10.50;99.90
44671;DHT22;48397;53.016;-2.260;2023-04-22T09:35:58;10.60;99.90
44671;DHT22;48397;53.016;-2.260;2023-04-22T09:38:30;10.70;99.90
44671;DHT22;48397;53.016;-2.260;2023-04-22T09:40:57;10.90;99.90
44671;DHT22;48397;53.016;-2.260;2023-04-22T09:43:25;11.20;99.90
44671;DHT22;48397;53.016;-2.260;2023-04-22T09:45:53;11.60;99.90
44671;DHT22;48397;53.016;-2.260;2023-04-22T09:48:21;11.60;99.90
44671;DHT22;48397;53.016;-2.260;2023-04-22T09:50:50;12.00;99.90
44671;DHT22;48397;53.016;-2.260;2023-04-22T09:53:19;11.90;99.90
44671;DHT22;48397;53.016;-2.260;2023-04-22T09:55:50;12.00;99.90
44671;DHT22;48397;53.016;-2.260;2023-04-22T09:58:19;12.00;99.90
44671;DHT22;48397;53.016;-2.260;2023-04-22T10:00:53;12.10;99.90
44671;DHT22;48397;53.016;-2.260;2023-04-22T10:03:21;12.10;99.90
44671;DHT22;48397;53.016;-2.260;2023-04-22T10:05:49;12.10;99.90
44671;DHT22;48397;53.016;-2.260;2023-04-22T10:08:17;12.00;99.90
44671;DHT22;48397;53.016;-2.260;2023-04-22T10:10:45;12.00;99.90
44671;DHT22;48397;53.016;-2.260;2023-04-22T10:13:13;12.00;99.90
44671;DHT22;48397;53.016;-2.260;2023-04-22T10:15:42;11.90;99.90
44671;DHT22;48397;53.016;-2.260;2023-04-22T10:18:13;12.00;99.90
44671;DHT22;48397;53.016;-2.260;2023-04-22T10:20:43;12.20;99.90
44671;DHT22;48397;53.016;-2.260;2023-04-22T10:23:17;12.30;99.90
44671;DHT22;48397;53.016;-2.260;2023-04-22T10:25:52;12.20;99.90
44671;DHT22;48397;53.016;-2.260;2023-04-22T10:28:20;12.00;99.90
44671;DHT22;48397;53.016;-2.260;2023-04-22T10:30:49;11.90;99.90
44671;DHT22;48397;53.016;-2.260;2023-04-22T10:41:31;12.00;99.90
44671;DHT22;48397;53.016;-2.260;2023-04-22T10:44:06;12.30;99.90
44671;DHT22;48397;53.016;-2.260;2023-04-22T10:49:10;12.80;99.90
44671;DHT22;48397;53.016;-2.260;2023-04-22T10:51:43;13.10;99.90
44671;DHT22;48397;53.016;-2.260;2023-04-22T10:57:07;13.50;99.90
44671;DHT22;48397;53.016;-2.260;2023-04-22T10:59:44;13.50;99.90
44671;DHT22;48397;53.016;-2.260;2023-04-22T11:02:15;13.80;99.90
44671;DHT22;48397;53.016;-2.260;2023-04-22T11:04:43;13.90;99.90
44671;DHT22;48397;53.016;-2.260;2023-04-22T11:09:59;14.20;99.90
44671;DHT22;48397;53.016;-2.260;2023-04-22T11:15:09;14.50;99.90
44671;DHT22;48397;53.016;-2.260;2023-04-22T11:17:39;14.70;99.90
44671;DHT22;48397;53.016;-2.260;2023-04-22T11:20:09;14.90;99.90
44671;DHT22;48397;53.016;-2.260;2023-04-22T11:22:42;14.90;99.90
44671;DHT22;48397;53.016;-2.260;2023-04-22T11:25:10;14.90;99.90
44671;DHT22;48397;53.016;-2.260;2023-04-22T11:27:39;14.60;99.90
44671;DHT22;48397;53.016;-2.260;2023-04-22T11:30:12;14.60;99.90
44671;DHT22;48397;53.016;-2.260;2023-04-22T11:32:49;14.80;99.90
44671;DHT22;48397;53.016;-2.260;2023-04-22T11:40:21;15.00;99.90
44671;DHT22;48397;53.016;-2.260;2023-04-22T11:43:00;15.00;99.90
44671;DHT22;48397;53.016;-2.260;2023-04-22T11:45:29;15.10;99.90
44671;DHT22;48397;53.016;-2.260;2023-04-22T11:47:58;15.10;99.90
44671;DHT22;48397;53.016;-2.260;2023-04-22T11:50:31;15.20;99.90
44671;DHT22;48397;53.016;-2.260;2023-04-22T11:53:04;15.20;99.90
44671;DHT22;48397;53.016;-2.260;2023-04-22T11:55:39;15.20;99.90
44671;DHT22;48397;53.016;-2.260;2023-04-22T11:58:09;15.20;99.90
44671;DHT22;48397;53.016;-2.260;2023-04-22T12:00:46;15.20;99.90
44671;DHT22;48397;53.016;-2.260;2023-04-22T12:03:14;15.30;99.90
44671;DHT22;48397;53.016;-2.260;2023-04-22T12:05:44;15.40;99.90
44671;DHT22;48397;53.016;-2.260;2023-04-22T12:08:15;15.40;99.90
44671;DHT22;48397;53.016;-2.260;2023-04-22T12:10:54;15.30;99.90
44671;DHT22;48397;53.016;-2.260;2023-04-22T12:13:27;15.30;99.90
44671;DHT22;48397;53.016;-2.260;2023-04-22T12:15:59;15.30;99.90
44671;DHT22;48397;53.016;-2.260;2023-04-22T12:18:32;15.30;99.90
44671;DHT22;48397;53.016;-2.260;2023-04-22T12:23:40;15.40;99.90
44671;DHT22;48397;53.016;-2.260;2023-04-22T12:26:09;15.20;99.90
44671;DHT22;48397;53.016;-2.260;2023-04-22T12:28:37;15.50;99.90
44671;DHT22;48397;53.016;-2.260;2023-04-22T12:31:08;15.40;99.90
44671;DHT22;48397;53.016;-2.260;2023-04-22T12:33:52;15.30;99.90
44671;DHT22;48397;53.016;-2.260;2023-04-22T12:36:20;15.30;99.90
44671;DHT22;48397;53.016;-2.260;2023-04-22T12:38:50;15.30;99.90
44671;DHT22;48397;53.016;-2.260;2023-04-22T12:41:18;15.30;99.90
44671;DHT22;48397;53.016;-2.260;2023-04-22T12:43:46;15.40;99.90
44671;DHT22;48397;53.016;-2.260;2023-04-22T12:46:14;15.40;99.90
44671;DHT22;48397;53.016;-2.260;2023-04-22T12:48:43;15.60;99.90
44671;DHT22;48397;53.016;-2.260;2023-04-22T12:51:10;15.70;99.90
44671;DHT22;48397;53.016;-2.260;2023-04-22T12:53:38;15.70;99.90
44671;DHT22;48397;53.016;-2.260;2023-04-22T12:56:06;15.60;99.90
44671;DHT22;48397;53.016;-2.260;2023-04-22T12:58:36;15.70;99.90
44671;DHT22;48397;53.016;-2.260;2023-04-22T13:01:07;15.80;99.90
44671;DHT22;48397;53.016;-2.260;2023-04-22T13:03:34;15.90;99.90
44671;DHT22;48397;53.016;-2.260;2023-04-22T13:06:02;15.90;99.90
44671;DHT22;48397;53.016;-2.260;2023-04-22T13:08:30;16.10;99.90
44671;DHT22;48397;53.016;-2.260;2023-04-22T13:10:58;16.10;99.90
44671;DHT22;48397;53.016;-2.260;2023-04-22T13:13:26;16.20;99.90
44671;DHT22;48397;53.016;-2.260;2023-04-22T13:15:54;16.20;99.90
44671;DHT22;48397;53.016;-2.260;2023-04-22T13:18:22;16.20;99.90
44671;DHT22;48397;53.016;-2.260;2023-04-22T13:20:50;16.40;99.90
44671;DHT22;48397;53.016;-2.260;2023-04-22T13:23:18;16.40;99.90
44671;DHT22;48397;53.016;-2.260;2023-04-22T13:25:57;16.50;99.90
44671;DHT22;48397;53.016;-2.260;2023-04-22T13:28:25;16.50;99.10
44671;DHT22;48397;53.016;-2.260;2023-04-22T13:30:54;16.30;99.40
44671;DHT22;48397;53.016;-2.260;2023-04-22T13:33:22;16.30;99.30
44671;DHT22;48397;53.016;-2.260;2023-04-22T13:35:49;16.30;99.40
44671;DHT22;48397;53.016;-2.260;2023-04-22T13:38:17;16.20;98.90
44671;DHT22;48397;53.016;-2.260;2023-04-22T13:40:45;15.90;99.70
44671;DHT22;48397;53.016;-2.260;2023-04-22T13:43:13;15.80;99.90
44671;DHT22;48397;53.016;-2.260;2023-04-22T13:45:41;15.60;99.90
44671;DHT22;48397;53.016;-2.260;2023-04-22T13:48:08;15.50;99.90
44671;DHT22;48397;53.016;-2.260;2023-04-22T13:50:36;15.40;99.90
44671;DHT22;48397;53.016;-2.260;2023-04-22T13:53:04;15.40;99.90
44671;DHT22;48397;53.016;-2.260;2023-04-22T13:55:37;15.40;99.90
44671;DHT22;48397;53.016;-2.260;2023-04-22T13:58:04;15.30;99.90
44671;DHT22;48397;53.016;-2.260;2023-04-22T14:00:34;15.60;99.90
44671;DHT22;48397;53.016;-2.260;2023-04-22T14:03:01;15.80;99.90
44671;DHT22;48397;53.016;-2.260;2023-04-22T14:05:29;15.80;99.90
44671;DHT22;48397;53.016;-2.260;2023-04-22T14:07:57;15.90;99.90
44671;DHT22;48397;53.016;-2.260;2023-04-22T14:10:24;15.90;99.90
44671;DHT22;48397;53.016;-2.260;2023-04-22T14:12:55;15.80;99.90
44671;DHT22;48397;53.016;-2.260;2023-04-22T14:15:23;15.80;99.90
44671;DHT22;48397;53.016;-2.260;2023-04-22T14:17:52;15.60;99.60
44671;DHT22;48397;53.016;-2.260;2023-04-22T14:20:20;15.60;98.90
44671;DHT22;48397;53.016;-2.260;2023-04-22T14:22:48;15.60;99.20
44671;DHT22;48397;53.016;-2.260;2023-04-22T14:25:15;15.50;99.10
44671;DHT22;48397;53.016;-2.260;2023-04-22T14:27:43;15.30;99.40
44671;DHT22;48397;53.016;-2.260;2023-04-22T14:30:11;15.20;99.40
44671;DHT22;48397;53.016;-2.260;2023-04-22T14:32:39;15.30;99.40
44671;DHT22;48397;53.016;-2.260;2023-04-22T14:35:07;15.20;99.60
44671;DHT22;48397;53.016;-2.260;2023-04-22T14:37:35;15.30;98.90
44671;DHT22;48397;53.016;-2.260;2023-04-22T14:40:03;15.40;99.00
44671;DHT22;48397;53.016;-2.260;2023-04-22T14:42:31;15.40;99.20
44671;DHT22;48397;53.016;-2.260;2023-04-22T14:44:58;15.70;99.20
44671;DHT22;48397;53.016;-2.260;2023-04-22T14:47:26;15.90;98.70
44671;DHT22;48397;53.016;-2.260;2023-04-22T14:49:54;15.90;98.80
44671;DHT22;48397;53.016;-2.260;2023-04-22T14:52:22;16.20;98.40
44671;DHT22;48397;53.016;-2.260;2023-04-22T14:54:50;16.10;98.70
44671;DHT22;48397;53.016;-2.260;2023-04-22T14:57:18;12.70;98.20
44671;DHT22;48397;53.016;-2.260;2023-04-22T14:59:46;16.30;99.30
44671;DHT22;48397;53.016;-2.260;2023-04-22T15:02:14;16.20;97.80
44671;DHT22;48397;53.016;-2.260;2023-04-22T15:04:43;15.90;98.00
44671;DHT22;48397;53.016;-2.260;2023-04-22T15:07:11;15.90;98.20
44671;DHT22;48397;53.016;-2.260;2023-04-22T15:09:38;15.60;98.60
44671;DHT22;48397;53.016;-2.260;2023-04-22T15:12:08;15.60;98.90
44671;DHT22;48397;53.016;-2.260;2023-04-22T15:14:35;15.50;98.80
44671;DHT22;48397;53.016;-2.260;2023-04-22T15:17:04;15.40;99.10
44671;DHT22;48397;53.016;-2.260;2023-04-22T15:19:32;15.50;99.40
44671;DHT22;48397;53.016;-2.260;2023-04-22T15:22:00;16.00;99.90
44671;DHT22;48397;53.016;-2.260;2023-04-22T15:24:28;16.10;99.90
44671;DHT22;48397;53.016;-2.260;2023-04-22T15:26:55;16.50;99.90
44671;DHT22;48397;53.016;-2.260;2023-04-22T15:29:24;17.70;99.20
44671;DHT22;48397;53.016;-2.260;2023-04-22T15:31:52;18.30;99.00
44671;DHT22;48397;53.016;-2.260;2023-04-22T15:34:21;18.20;99.20
44671;DHT22;48397;53.016;-2.260;2023-04-22T15:36:49;18.50;97.20
44671;DHT22;48397;53.016;-2.260;2023-04-22T15:39:16;18.00;95.90
44671;DHT22;48397;53.016;-2.260;2023-04-22T15:41:44;18.00;96.10
44671;DHT22;48397;53.016;-2.260;2023-04-22T15:46:44;16.80;95.30
44671;DHT22;48397;53.016;-2.260;2023-04-22T15:51:41;16.40;95.70
44671;DHT22;48397;53.016;-2.260;2023-04-22T15:54:23;15.90;96.60
44671;DHT22;48397;53.016;-2.260;2023-04-22T15:57:04;15.60;96.80
44671;DHT22;48397;53.016;-2.260;2023-04-22T15:59:32;15.40;97.00
44671;DHT22;48397;53.016;-2.260;2023-04-22T16:02:00;15.50;97.20
44671;DHT22;48397;53.016;-2.260;2023-04-22T16:04:28;15.30;97.30
44671;DHT22;48397;53.016;-2.260;2023-04-22T16:06:56;15.30;97.70
44671;DHT22;48397;53.016;-2.260;2023-04-22T16:09:23;15.40;97.80
44671;DHT22;48397;53.016;-2.260;2023-04-22T16:11:51;15.40;98.00
44671;DHT22;48397;53.016;-2.260;2023-04-22T16:16:47;16.00;97.40
44671;DHT22;48397;53.016;-2.260;2023-04-22T16:19:15;16.70;97.20
44671;DHT22;48397;53.016;-2.260;2023-04-22T16:21:43;16.80;96.90
44671;DHT22;48397;53.016;-2.260;2023-04-22T16:24:11;16.80;96.30
44671;DHT22;48397;53.016;-2.260;2023-04-22T16:26:40;16.70;96.00
44671;DHT22;48397;53.016;-2.260;2023-04-22T16:29:10;16.50;96.00
44671;DHT22;48397;53.016;-2.260;2023-04-22T16:31:37;16.50;96.20
44671;DHT22;48397;53.016;-2.260;2023-04-22T16:34:05;16.40;96.00
44671;DHT22;48397;53.016;-2.260;2023-04-22T16:36:33;16.30;96.20
44671;DHT22;48397;53.016;-2.260;2023-04-22T16:39:01;16.20;96.30
44671;DHT22;48397;53.016;-2.260;2023-04-22T16:41:29;16.40;96.00
44671;DHT22;48397;53.016;-2.260;2023-04-22T16:43:57;16.70;95.90
44671;DHT22;48397;53.016;-2.260;2023-04-22T16:46:26;17.00;95.80
44671;DHT22;48397;53.016;-2.260;2023-04-22T16:48:54;17.20;95.30
44671;DHT22;48397;53.016;-2.260;2023-04-22T16:51:21;17.10;95.30
44671;DHT22;48397;53.016;-2.260;2023-04-22T16:53:49;14.80;94.70
44671;DHT22;48397;53.016;-2.260;2023-04-22T16:56:17;17.00;95.00
44671;DHT22;48397;53.016;-2.260;2023-04-22T17:17:20;14.90;96.40
44671;DHT22;48397;53.016;-2.260;2023-04-22T17:19:47;14.90;96.60
44671;DHT22;48397;53.016;-2.260;2023-04-22T17:24:43;14.60;96.80
44671;DHT22;48397;53.016;-2.260;2023-04-22T17:27:11;14.50;97.00
44671;DHT22;48397;53.016;-2.260;2023-04-22T17:29:42;14.30;97.20
44671;DHT22;48397;53.016;-2.260;2023-04-22T17:32:10;14.30;97.20
44671;DHT22;48397;53.016;-2.260;2023-04-22T17:34:42;14.30;97.30
44671;DHT22;48397;53.016;-2.260;2023-04-22T17:37:09;14.20;97.40
44671;DHT22;48397;53.016;-2.260;2023-04-22T17:39:37;14.10;97.50
44671;DHT22;48397;53.016;-2.260;2023-04-22T17:42:06;14.10;97.60
44671;DHT22;48397;53.016;-2.260;2023-04-22T17:44:34;14.10;97.70
44671;DHT22;48397;53.016;-2.260;2023-04-22T17:47:02;13.90;97.50
44671;DHT22;48397;53.016;-2.260;2023-04-22T17:49:32;13.80;97.50
44671;DHT22;48397;53.016;-2.260;2023-04-22T17:52:00;13.70;97.50
44671;DHT22;48397;53.016;-2.260;2023-04-22T17:56:56;13.70;97.80
44671;DHT22;48397;53.016;-2.260;2023-04-22T17:59:23;13.70;98.00